sensor_id;sensor_type;location;lat;lon;timestamp;P1;durP1;ratioP1;P2;durP2;ratioP2
4138;SDS011;2083;51.034;6.996;2022-10-19T00:02:23;4.77;;;4.47;;
4138;SDS011;2083;51.034;6.996;2022-10-19T00:04:49;3.83;;;3.53;;
4138;SDS011;2083;51.034;6.996;2022-10-19T00:07:15;11.50;;;5.33;;
4138;SDS011;2083;51.034;6.996;2022-10-19T00:09:44;7.23;;;4.20;;
4138;SDS011;2083;51.034;6.996;2022-10-19T00:12:10;4.87;;;4.50;;
4138;SDS011;2083;51.034;6.996;2022-10-19T00:14:36;3.50;;;3.20;;
4138;SDS011;2083;51.034;6.996;2022-10-19T00:17:03;4.73;;;4.30;;
4138;SDS011;2083;51.034;6.996;2022-10-19T00:19:28;3.17;;;2.87;;
4138;SDS011;2083;51.034;6.996;2022-10-19T00:21:54;4.90;;;4.00;;
4138;SDS011;2083;51.034;6.996;2022-10-19T00:24:20;4.23;;;3.87;;
4138;SDS011;2083;51.034;6.996;2022-10-19T00:26:46;3.87;;;3.67;;
4138;SDS011;2083;51.034;6.996;2022-10-19T00:29:13;3.00;;;2.80;;
4138;SDS011;2083;51.034;6.996;2022-10-19T00:31:39;5.17;;;3.83;;
4138;SDS011;2083;51.034;6.996;2022-10-19T00:34:05;4.03;;;3.63;;
4138;SDS011;2083;51.034;6.996;2022-10-19T00:36:33;5.03;;;4.30;;
4138;SDS011;2083;51.034;6.996;2022-10-19T00:39:00;3.60;;;3.50;;
4138;SDS011;2083;51.034;6.996;2022-10-19T00:41:30;3.30;;;3.00;;
4138;SDS011;2083;51.034;6.996;2022-10-19T00:44:01;10.47;;;4.63;;
4138;SDS011;2083;51.034;6.996;2022-10-19T00:46:28;4.53;;;4.13;;
4138;SDS011;2083;51.034;6.996;2022-10-19T00:48:56;3.90;;;3.43;;
4138;SDS011;2083;51.034;6.996;2022-10-19T00:51:23;4.27;;;3.87;;
4138;SDS011;2083;51.034;6.996;2022-10-19T00:53:49;4.60;;;3.43;;
4138;SDS011;2083;51.034;6.996;2022-10-19T00:56:15;3.17;;;3.07;;
4138;SDS011;2083;51.034;6.996;2022-10-19T00:58:42;4.10;;;3.90;;
4138;SDS011;2083;51.034;6.996;2022-10-19T01:01:09;3.07;;;2.87;;
4138;SDS011;2083;51.034;6.996;2022-10-19T01:03:36;3.83;;;3.63;;
4138;SDS011;2083;51.034;6.996;2022-10-19T01:06:02;5.40;;;3.70;;
4138;SDS011;2083;51.034;6.996;2022-10-19T01:08:28;4.20;;;3.50;;
4138;SDS011;2083;51.034;6.996;2022-10-19T01:16:03;5.87;;;5.37;;
4138;SDS011;2083;51.034;6.996;2022-10-19T01:23:59;3.83;;;3.63;;
4138;SDS011;2083;51.034;6.996;2022-10-19T01:26:36;4.00;;;3.67;;
4138;SDS011;2083;51.034;6.996;2022-10-19T01:34:24;4.10;;;3.80;;
4138;SDS011;2083;51.034;6.996;2022-10-19T01:36:58;13.53;;;4.17;;
4138;SDS011;2083;51.034;6.996;2022-10-19T01:39:37;9.40;;;4.10;;
4138;SDS011;2083;51.034;6.996;2022-10-19T01:42:10;6.40;;;3.97;;
4138;SDS011;2083;51.034;6.996;2022-10-19T01:44:39;4.27;;;3.93;;
4138;SDS011;2083;51.034;6.996;2022-10-19T01:47:08;3.20;;;2.97;;
4138;SDS011;2083;51.034;6.996;2022-10-19T01:52:05;6.00;;;3.40;;
4138;SDS011;2083;51.034;6.996;2022-10-19T01:54:33;3.37;;;2.80;;
4138;SDS011;2083;51.034;6.996;2022-10-19T01:57:01;3.90;;;3.80;;
4138;SDS011;2083;51.034;6.996;2022-10-19T01:59:29;5.03;;;3.47;;
4138;SDS011;2083;51.034;6.996;2022-10-19T02:01:57;2.90;;;2.70;;
4138;SDS011;2083;51.034;6.996;2022-10-19T02:04:23;3.47;;;2.93;;
4138;SDS011;2083;51.034;6.996;2022-10-19T02:06:51;4.30;;;3.87;;
4138;SDS011;2083;51.034;6.996;2022-10-19T02:09:17;5.00;;;3.17;;
4138;SDS011;2083;51.034;6.996;2022-10-19T02:11:48;3.47;;;3.17;;
4138;SDS011;2083;51.034;6.996;2022-10-19T02:14:15;2.43;;;2.23;;
4138;SDS011;2083;51.034;6.996;2022-10-19T02:16:44;3.67;;;3.30;;
4138;SDS011;2083;51.034;6.996;2022-10-19T02:19:11;17.93;;;3.27;;
4138;SDS011;2083;51.034;6.996;2022-10-19T02:21:39;3.27;;;3.17;;
4138;SDS011;2083;51.034;6.996;2022-10-19T02:24:05;3.13;;;3.00;;
4138;SDS011;2083;51.034;6.996;2022-10-19T02:26:31;3.90;;;3.60;;
4138;SDS011;2083;51.034;6.996;2022-10-19T02:28:57;12.80;;;2.97;;
4138;SDS011;2083;51.034;6.996;2022-10-19T02:31:23;2.90;;;2.70;;
4138;SDS011;2083;51.034;6.996;2022-10-19T02:33:50;6.73;;;3.10;;
4138;SDS011;2083;51.034;6.996;2022-10-19T02:36:16;10.13;;;2.97;;
4138;SDS011;2083;51.034;6.996;2022-10-19T02:38:42;32.83;;;3.50;;
4138;SDS011;2083;51.034;6.996;2022-10-19T02:41:14;12.23;;;3.93;;
4138;SDS011;2083;51.034;6.996;2022-10-19T02:43:43;2.93;;;2.70;;
4138;SDS011;2083;51.034;6.996;2022-10-19T02:46:12;5.93;;;2.97;;
4138;SDS011;2083;51.034;6.996;2022-10-19T02:48:40;3.33;;;3.07;;
4138;SDS011;2083;51.034;6.996;2022-10-19T02:53:53;4.23;;;2.60;;
4138;SDS011;2083;51.034;6.996;2022-10-19T02:56:20;2.03;;;1.93;;
4138;SDS011;2083;51.034;6.996;2022-10-19T02:58:47;5.30;;;2.80;;
4138;SDS011;2083;51.034;6.996;2022-10-19T03:01:12;3.23;;;3.03;;
4138;SDS011;2083;51.034;6.996;2022-10-19T03:03:38;5.00;;;2.30;;
4138;SDS011;2083;51.034;6.996;2022-10-19T03:06:04;8.77;;;2.67;;
4138;SDS011;2083;51.034;6.996;2022-10-19T03:08:30;3.33;;;3.00;;
4138;SDS011;2083;51.034;6.996;2022-10-19T03:10:59;3.67;;;3.37;;
4138;SDS011;2083;51.034;6.996;2022-10-19T03:13:25;1.53;;;1.47;;
4138;SDS011;2083;51.034;6.996;2022-10-19T03:15:51;2.70;;;2.50;;
4138;SDS011;2083;51.034;6.996;2022-10-19T03:18:17;7.00;;;2.43;;
4138;SDS011;2083;51.034;6.996;2022-10-19T03:20:43;2.47;;;2.37;;
4138;SDS011;2083;51.034;6.996;2022-10-19T03:23:09;9.83;;;2.40;;
4138;SDS011;2083;51.034;6.996;2022-10-19T03:25:35;2.60;;;2.50;;
4138;SDS011;2083;51.034;6.996;2022-10-19T03:28:01;2.60;;;2.40;;
4138;SDS011;2083;51.034;6.996;2022-10-19T03:30:27;2.00;;;1.90;;
4138;SDS011;2083;51.034;6.996;2022-10-19T03:32:53;8.60;;;3.60;;
4138;SDS011;2083;51.034;6.996;2022-10-19T03:35:19;3.40;;;3.30;;
4138;SDS011;2083;51.034;6.996;2022-10-19T03:37:45;2.70;;;2.60;;
4138;SDS011;2083;51.034;6.996;2022-10-19T03:40:11;2.13;;;2.00;;
4138;SDS011;2083;51.034;6.996;2022-10-19T03:42:37;2.70;;;2.60;;
4138;SDS011;2083;51.034;6.996;2022-10-19T03:45:03;7.47;;;1.80;;
4138;SDS011;2083;51.034;6.996;2022-10-19T03:47:29;2.83;;;2.63;;
4138;SDS011;2083;51.034;6.996;2022-10-19T03:49:55;2.17;;;2.10;;
4138;SDS011;2083;51.034;6.996;2022-10-19T03:52:21;9.43;;;2.67;;
4138;SDS011;2083;51.034;6.996;2022-10-19T03:54:50;2.23;;;2.00;;
4138;SDS011;2083;51.034;6.996;2022-10-19T03:57:16;2.30;;;2.10;;
4138;SDS011;2083;51.034;6.996;2022-10-19T03:59:42;3.10;;;2.83;;
4138;SDS011;2083;51.034;6.996;2022-10-19T04:02:08;3.07;;;2.80;;
4138;SDS011;2083;51.034;6.996;2022-10-19T04:04:33;2.03;;;1.97;;
4138;SDS011;2083;51.034;6.996;2022-10-19T04:06:59;5.40;;;2.77;;
4138;SDS011;2083;51.034;6.996;2022-10-19T04:09:25;3.43;;;3.23;;
4138;SDS011;2083;51.034;6.996;2022-10-19T04:11:51;2.50;;;2.40;;
4138;SDS011;2083;51.034;6.996;2022-10-19T04:14:18;2.50;;;2.40;;
4138;SDS011;2083;51.034;6.996;2022-10-19T04:16:45;3.77;;;2.20;;
4138;SDS011;2083;51.034;6.996;2022-10-19T04:19:12;3.10;;;3.00;;
4138;SDS011;2083;51.034;6.996;2022-10-19T04:21:38;2.37;;;2.27;;
4138;SDS011;2083;51.034;6.996;2022-10-19T04:26:37;7.70;;;3.70;;
4138;SDS011;2083;51.034;6.996;2022-10-19T04:29:03;2.73;;;2.53;;
4138;SDS011;2083;51.034;6.996;2022-10-19T04:31:29;12.40;;;2.77;;
4138;SDS011;2083;51.034;6.996;2022-10-19T04:33:55;11.77;;;2.37;;
4138;SDS011;2083;51.034;6.996;2022-10-19T04:36:21;10.77;;;2.50;;
4138;SDS011;2083;51.034;6.996;2022-10-19T04:38:47;1.93;;;1.83;;
4138;SDS011;2083;51.034;6.996;2022-10-19T04:41:14;8.90;;;2.77;;
4138;SDS011;2083;51.034;6.996;2022-10-19T04:43:40;2.47;;;2.27;;
4138;SDS011;2083;51.034;6.996;2022-10-19T04:46:10;1.87;;;1.77;;
4138;SDS011;2083;51.034;6.996;2022-10-19T04:48:37;4.70;;;3.50;;
4138;SDS011;2083;51.034;6.996;2022-10-19T04:51:03;7.50;;;2.87;;
4138;SDS011;2083;51.034;6.996;2022-10-19T04:53:30;5.13;;;2.80;;
4138;SDS011;2083;51.034;6.996;2022-10-19T04:55:56;3.00;;;2.03;;
4138;SDS011;2083;51.034;6.996;2022-10-19T04:58:22;2.77;;;2.57;;
4138;SDS011;2083;51.034;6.996;2022-10-19T05:00:48;2.73;;;2.40;;
4138;SDS011;2083;51.034;6.996;2022-10-19T05:03:14;3.10;;;2.90;;
4138;SDS011;2083;51.034;6.996;2022-10-19T05:05:40;6.43;;;2.47;;
4138;SDS011;2083;51.034;6.996;2022-10-19T05:08:06;2.53;;;1.97;;
4138;SDS011;2083;51.034;6.996;2022-10-19T05:10:32;3.73;;;2.50;;
4138;SDS011;2083;51.034;6.996;2022-10-19T05:13:00;4.10;;;2.30;;
4138;SDS011;2083;51.034;6.996;2022-10-19T05:15:26;3.23;;;3.03;;
4138;SDS011;2083;51.034;6.996;2022-10-19T05:17:53;2.53;;;2.43;;
4138;SDS011;2083;51.034;6.996;2022-10-19T05:20:19;5.10;;;3.90;;
4138;SDS011;2083;51.034;6.996;2022-10-19T05:22:45;7.13;;;2.63;;
4138;SDS011;2083;51.034;6.996;2022-10-19T05:25:11;2.37;;;2.27;;
4138;SDS011;2083;51.034;6.996;2022-10-19T05:27:37;6.73;;;2.63;;
4138;SDS011;2083;51.034;6.996;2022-10-19T05:30:03;7.70;;;2.50;;
4138;SDS011;2083;51.034;6.996;2022-10-19T05:32:30;4.67;;;2.10;;
4138;SDS011;2083;51.034;6.996;2022-10-19T05:34:56;5.73;;;3.43;;
4138;SDS011;2083;51.034;6.996;2022-10-19T05:37:22;2.70;;;2.53;;
4138;SDS011;2083;51.034;6.996;2022-10-19T05:39:49;4.40;;;2.43;;
4138;SDS011;2083;51.034;6.996;2022-10-19T05:42:15;5.40;;;2.17;;
4138;SDS011;2083;51.034;6.996;2022-10-19T05:44:41;2.23;;;2.03;;
4138;SDS011;2083;51.034;6.996;2022-10-19T05:47:07;4.80;;;3.00;;
4138;SDS011;2083;51.034;6.996;2022-10-19T05:49:33;2.10;;;2.00;;
4138;SDS011;2083;51.034;6.996;2022-10-19T05:51:59;5.37;;;2.87;;
4138;SDS011;2083;51.034;6.996;2022-10-19T05:54:25;5.43;;;2.87;;
4138;SDS011;2083;51.034;6.996;2022-10-19T05:56:51;3.43;;;3.00;;
4138;SDS011;2083;51.034;6.996;2022-10-19T05:59:17;2.70;;;2.60;;
4138;SDS011;2083;51.034;6.996;2022-10-19T06:01:45;2.23;;;2.07;;
4138;SDS011;2083;51.034;6.996;2022-10-19T06:04:13;2.57;;;2.23;;
4138;SDS011;2083;51.034;6.996;2022-10-19T06:06:39;15.63;;;2.67;;
4138;SDS011;2083;51.034;6.996;2022-10-19T06:09:06;4.37;;;3.80;;
4138;SDS011;2083;51.034;6.996;2022-10-19T06:11:33;2.50;;;2.40;;
4138;SDS011;2083;51.034;6.996;2022-10-19T06:14:00;2.40;;;2.30;;
4138;SDS011;2083;51.034;6.996;2022-10-19T06:16:26;2.43;;;2.33;;
4138;SDS011;2083;51.034;6.996;2022-10-19T06:18:53;1.67;;;1.67;;
4138;SDS011;2083;51.034;6.996;2022-10-19T06:21:20;7.70;;;3.37;;
4138;SDS011;2083;51.034;6.996;2022-10-19T06:23:51;3.00;;;2.77;;
4138;SDS011;2083;51.034;6.996;2022-10-19T06:26:18;3.33;;;3.10;;
4138;SDS011;2083;51.034;6.996;2022-10-19T06:28:44;3.03;;;2.93;;
4138;SDS011;2083;51.034;6.996;2022-10-19T06:31:10;3.13;;;2.93;;
4138;SDS011;2083;51.034;6.996;2022-10-19T06:33:38;5.37;;;2.80;;
4138;SDS011;2083;51.034;6.996;2022-10-19T06:36:07;2.73;;;2.60;;
4138;SDS011;2083;51.034;6.996;2022-10-19T06:38:34;3.60;;;2.97;;
4138;SDS011;2083;51.034;6.996;2022-10-19T06:41:00;5.23;;;1.73;;
4138;SDS011;2083;51.034;6.996;2022-10-19T06:43:26;3.13;;;2.93;;
4138;SDS011;2083;51.034;6.996;2022-10-19T06:45:52;3.33;;;3.17;;
4138;SDS011;2083;51.034;6.996;2022-10-19T06:48:19;4.00;;;2.70;;
4138;SDS011;2083;51.034;6.996;2022-10-19T06:50:45;9.90;;;3.00;;
4138;SDS011;2083;51.034;6.996;2022-10-19T06:53:12;3.33;;;3.10;;
4138;SDS011;2083;51.034;6.996;2022-10-19T06:55:38;3.03;;;2.87;;
4138;SDS011;2083;51.034;6.996;2022-10-19T06:58:04;3.97;;;3.27;;
4138;SDS011;2083;51.034;6.996;2022-10-19T07:00:30;1.40;;;1.40;;
4138;SDS011;2083;51.034;6.996;2022-10-19T07:02:57;0.30;;;0.30;;
4138;SDS011;2083;51.034;6.996;2022-10-19T07:05:23;0.87;;;0.87;;
4138;SDS011;2083;51.034;6.996;2022-10-19T07:07:49;0.30;;;0.30;;
4138;SDS011;2083;51.034;6.996;2022-10-19T07:10:15;9.57;;;6.07;;
4138;SDS011;2083;51.034;6.996;2022-10-19T07:12:41;28.53;;;7.30;;
4138;SDS011;2083;51.034;6.996;2022-10-19T07:15:07;9.60;;;5.77;;
4138;SDS011;2083;51.034;6.996;2022-10-19T07:17:33;3.33;;;3.00;;
4138;SDS011;2083;51.034;6.996;2022-10-19T07:19:59;7.83;;;6.27;;
4138;SDS011;2083;51.034;6.996;2022-10-19T07:22:24;11.23;;;7.17;;
4138;SDS011;2083;51.034;6.996;2022-10-19T07:24:50;16.50;;;5.00;;
4138;SDS011;2083;51.034;6.996;2022-10-19T07:27:16;11.00;;;5.90;;
4138;SDS011;2083;51.034;6.996;2022-10-19T07:29:42;10.43;;;3.63;;
4138;SDS011;2083;51.034;6.996;2022-10-19T07:32:08;29.27;;;6.13;;
4138;SDS011;2083;51.034;6.996;2022-10-19T07:34:34;5.30;;;4.33;;
4138;SDS011;2083;51.034;6.996;2022-10-19T07:37:00;10.47;;;4.80;;
4138;SDS011;2083;51.034;6.996;2022-10-19T07:39:26;9.40;;;4.80;;
4138;SDS011;2083;51.034;6.996;2022-10-19T07:41:52;5.13;;;4.10;;
4138;SDS011;2083;51.034;6.996;2022-10-19T07:44:18;6.90;;;3.50;;
4138;SDS011;2083;51.034;6.996;2022-10-19T07:46:44;4.70;;;4.20;;
4138;SDS011;2083;51.034;6.996;2022-10-19T07:49:14;6.40;;;4.23;;
4138;SDS011;2083;51.034;6.996;2022-10-19T07:51:44;8.43;;;3.53;;
4138;SDS011;2083;51.034;6.996;2022-10-19T07:54:12;5.00;;;3.90;;
4138;SDS011;2083;51.034;6.996;2022-10-19T07:56:38;8.50;;;3.40;;
4138;SDS011;2083;51.034;6.996;2022-10-19T07:59:04;11.40;;;3.43;;
4138;SDS011;2083;51.034;6.996;2022-10-19T08:01:31;8.00;;;4.00;;
4138;SDS011;2083;51.034;6.996;2022-10-19T08:03:58;7.93;;;4.20;;
4138;SDS011;2083;51.034;6.996;2022-10-19T08:06:24;10.67;;;3.70;;
4138;SDS011;2083;51.034;6.996;2022-10-19T08:08:50;6.10;;;3.83;;
4138;SDS011;2083;51.034;6.996;2022-10-19T08:11:18;4.67;;;3.00;;
4138;SDS011;2083;51.034;6.996;2022-10-19T08:13:45;1.23;;;1.13;;
4138;SDS011;2083;51.034;6.996;2022-10-19T08:19:02;5.50;;;3.50;;
4138;SDS011;2083;51.034;6.996;2022-10-19T08:21:31;3.13;;;2.33;;
4138;SDS011;2083;51.034;6.996;2022-10-19T08:23:56;4.67;;;3.50;;
4138;SDS011;2083;51.034;6.996;2022-10-19T08:26:24;0.70;;;0.60;;
4138;SDS011;2083;51.034;6.996;2022-10-19T08:28:50;2.80;;;2.33;;
4138;SDS011;2083;51.034;6.996;2022-10-19T08:31:17;7.37;;;3.30;;
4138;SDS011;2083;51.034;6.996;2022-10-19T08:33:44;3.67;;;1.77;;
4138;SDS011;2083;51.034;6.996;2022-10-19T08:36:10;9.90;;;3.63;;
4138;SDS011;2083;51.034;6.996;2022-10-19T08:38:37;2.97;;;2.30;;
4138;SDS011;2083;51.034;6.996;2022-10-19T08:41:07;3.43;;;3.20;;
4138;SDS011;2083;51.034;6.996;2022-10-19T08:43:37;3.87;;;2.63;;
4138;SDS011;2083;51.034;6.996;2022-10-19T08:46:13;4.10;;;3.30;;
4138;SDS011;2083;51.034;6.996;2022-10-19T08:48:43;11.60;;;3.57;;
4138;SDS011;2083;51.034;6.996;2022-10-19T08:51:10;8.43;;;2.87;;
4138;SDS011;2083;51.034;6.996;2022-10-19T08:53:55;9.13;;;3.50;;
4138;SDS011;2083;51.034;6.996;2022-10-19T08:56:29;0.60;;;0.40;;
4138;SDS011;2083;51.034;6.996;2022-10-19T09:04:06;8.60;;;2.53;;
4138;SDS011;2083;51.034;6.996;2022-10-19T09:09:21;5.70;;;2.23;;
4138;SDS011;2083;51.034;6.996;2022-10-19T09:11:48;2.50;;;2.30;;
4138;SDS011;2083;51.034;6.996;2022-10-19T09:14:20;5.20;;;2.87;;
4138;SDS011;2083;51.034;6.996;2022-10-19T09:16:47;5.43;;;3.10;;
4138;SDS011;2083;51.034;6.996;2022-10-19T09:19:20;3.03;;;2.83;;
4138;SDS011;2083;51.034;6.996;2022-10-19T09:21:50;1.77;;;0.73;;
4138;SDS011;2083;51.034;6.996;2022-10-19T09:27:03;3.73;;;1.60;;
4138;SDS011;2083;51.034;6.996;2022-10-19T09:29:34;5.97;;;1.70;;
4138;SDS011;2083;51.034;6.996;2022-10-19T09:32:02;1.30;;;0.90;;
4138;SDS011;2083;51.034;6.996;2022-10-19T09:34:30;5.77;;;2.20;;
4138;SDS011;2083;51.034;6.996;2022-10-19T09:36:58;13.37;;;1.07;;
4138;SDS011;2083;51.034;6.996;2022-10-19T09:39:25;3.73;;;1.07;;
4138;SDS011;2083;51.034;6.996;2022-10-19T09:44:35;3.70;;;1.60;;
4138;SDS011;2083;51.034;6.996;2022-10-19T09:47:07;11.53;;;4.90;;
4138;SDS011;2083;51.034;6.996;2022-10-19T09:49:42;1.10;;;1.00;;
4138;SDS011;2083;51.034;6.996;2022-10-19T09:52:31;4.83;;;2.47;;
4138;SDS011;2083;51.034;6.996;2022-10-19T09:55:46;4.13;;;1.60;;
4138;SDS011;2083;51.034;6.996;2022-10-19T09:57:46;8.90;;;1.00;;
4138;SDS011;2083;51.034;6.996;2022-10-19T10:00:16;2.70;;;2.17;;
4138;SDS011;2083;51.034;6.996;2022-10-19T10:02:47;6.23;;;1.30;;
4138;SDS011;2083;51.034;6.996;2022-10-19T10:05:14;3.20;;;1.73;;
4138;SDS011;2083;51.034;6.996;2022-10-19T10:07:40;4.43;;;1.07;;
4138;SDS011;2083;51.034;6.996;2022-10-19T10:10:10;6.83;;;1.47;;
4138;SDS011;2083;51.034;6.996;2022-10-19T10:12:43;0.80;;;0.50;;
4138;SDS011;2083;51.034;6.996;2022-10-19T10:15:15;3.43;;;0.97;;
4138;SDS011;2083;51.034;6.996;2022-10-19T10:17:43;1.63;;;1.40;;
4138;SDS011;2083;51.034;6.996;2022-10-19T10:20:27;4.50;;;1.80;;
4138;SDS011;2083;51.034;6.996;2022-10-19T10:23:02;3.73;;;1.50;;
4138;SDS011;2083;51.034;6.996;2022-10-19T10:25:30;1.80;;;1.37;;
4138;SDS011;2083;51.034;6.996;2022-10-19T10:27:58;3.83;;;1.10;;
4138;SDS011;2083;51.034;6.996;2022-10-19T10:30:24;5.33;;;1.97;;
4138;SDS011;2083;51.034;6.996;2022-10-19T10:32:52;9.03;;;1.60;;
4138;SDS011;2083;51.034;6.996;2022-10-19T10:35:19;5.00;;;1.30;;
4138;SDS011;2083;51.034;6.996;2022-10-19T10:37:46;6.57;;;1.40;;
4138;SDS011;2083;51.034;6.996;2022-10-19T10:40:18;2.73;;;1.60;;
4138;SDS011;2083;51.034;6.996;2022-10-19T10:42:46;2.13;;;1.20;;
4138;SDS011;2083;51.034;6.996;2022-10-19T10:45:22;10.73;;;1.83;;
4138;SDS011;2083;51.034;6.996;2022-10-19T10:47:48;6.67;;;1.83;;
4138;SDS011;2083;51.034;6.996;2022-10-19T10:50:19;7.03;;;1.80;;
4138;SDS011;2083;51.034;6.996;2022-10-19T10:53:01;3.10;;;1.60;;
4138;SDS011;2083;51.034;6.996;2022-10-19T10:55:28;2.07;;;1.87;;
4138;SDS011;2083;51.034;6.996;2022-10-19T10:58:04;5.27;;;1.93;;
4138;SDS011;2083;51.034;6.996;2022-10-19T11:00:34;1.47;;;1.20;;
4138;SDS011;2083;51.034;6.996;2022-10-19T11:05:30;1.10;;;1.00;;
4138;SDS011;2083;51.034;6.996;2022-10-19T11:08:01;2.70;;;1.50;;
4138;SDS011;2083;51.034;6.996;2022-10-19T11:10:33;4.53;;;1.40;;
4138;SDS011;2083;51.034;6.996;2022-10-19T11:15:54;0.87;;;0.87;;
4138;SDS011;2083;51.034;6.996;2022-10-19T11:26:08;5.80;;;1.20;;
4138;SDS011;2083;51.034;6.996;2022-10-19T11:31:38;0.70;;;0.50;;
4138;SDS011;2083;51.034;6.996;2022-10-19T11:42:04;1.77;;;1.20;;
4138;SDS011;2083;51.034;6.996;2022-10-19T11:44:43;13.37;;;1.80;;
4138;SDS011;2083;51.034;6.996;2022-10-19T11:49:47;4.07;;;1.43;;
4138;SDS011;2083;51.034;6.996;2022-10-19T11:57:39;5.20;;;1.87;;
4138;SDS011;2083;51.034;6.996;2022-10-19T12:00:11;0.80;;;0.70;;
4138;SDS011;2083;51.034;6.996;2022-10-19T12:02:44;0.90;;;0.57;;
4138;SDS011;2083;51.034;6.996;2022-10-19T12:07:53;1.60;;;1.10;;
4138;SDS011;2083;51.034;6.996;2022-10-19T12:12:55;4.50;;;1.60;;
4138;SDS011;2083;51.034;6.996;2022-10-19T12:18:10;1.13;;;0.80;;
4138;SDS011;2083;51.034;6.996;2022-10-19T12:20:40;2.80;;;0.97;;
4138;SDS011;2083;51.034;6.996;2022-10-19T12:23:16;2.30;;;0.93;;
4138;SDS011;2083;51.034;6.996;2022-10-19T12:25:42;2.60;;;1.90;;
4138;SDS011;2083;51.034;6.996;2022-10-19T12:28:11;1.20;;;0.80;;
4138;SDS011;2083;51.034;6.996;2022-10-19T12:30:41;1.40;;;1.27;;
4138;SDS011;2083;51.034;6.996;2022-10-19T12:36:00;0.70;;;0.57;;
4138;SDS011;2083;51.034;6.996;2022-10-19T12:40:55;0.70;;;0.40;;
4138;SDS011;2083;51.034;6.996;2022-10-19T12:43:37;2.60;;;1.07;;
4138;SDS011;2083;51.034;6.996;2022-10-19T12:49:26;1.23;;;0.70;;
4138;SDS011;2083;51.034;6.996;2022-10-19T12:51:44;1.10;;;1.00;;
4138;SDS011;2083;51.034;6.996;2022-10-19T12:54:11;0.60;;;0.40;;
4138;SDS011;2083;51.034;6.996;2022-10-19T12:56:45;0.90;;;0.80;;
4138;SDS011;2083;51.034;6.996;2022-10-19T12:59:18;1.80;;;0.80;;
4138;SDS011;2083;51.034;6.996;2022-10-19T13:01:45;0.90;;;0.73;;
4138;SDS011;2083;51.034;6.996;2022-10-19T13:04:13;0.80;;;0.80;;
4138;SDS011;2083;51.034;6.996;2022-10-19T13:06:41;2.80;;;1.00;;
4138;SDS011;2083;51.034;6.996;2022-10-19T13:09:08;0.70;;;0.50;;
4138;SDS011;2083;51.034;6.996;2022-10-19T13:14:40;6.80;;;1.20;;
4138;SDS011;2083;51.034;6.996;2022-10-19T13:17:06;1.00;;;0.70;;
4138;SDS011;2083;51.034;6.996;2022-10-19T13:19:33;4.20;;;1.00;;
4138;SDS011;2083;51.034;6.996;2022-10-19T13:29:48;1.30;;;1.03;;
4138;SDS011;2083;51.034;6.996;2022-10-19T13:37:42;3.10;;;1.87;;
4138;SDS011;2083;51.034;6.996;2022-10-19T13:40:16;9.90;;;1.50;;
4138;SDS011;2083;51.034;6.996;2022-10-19T13:42:42;8.20;;;2.60;;
4138;SDS011;2083;51.034;6.996;2022-10-19T13:45:19;1.10;;;0.60;;
4138;SDS011;2083;51.034;6.996;2022-10-19T13:47:45;0.70;;;0.53;;
4138;SDS011;2083;51.034;6.996;2022-10-19T13:53:01;3.10;;;1.20;;
4138;SDS011;2083;51.034;6.996;2022-10-19T14:01:10;10.17;;;1.83;;
4138;SDS011;2083;51.034;6.996;2022-10-19T14:03:52;4.50;;;2.00;;
4138;SDS011;2083;51.034;6.996;2022-10-19T14:09:03;2.93;;;1.70;;
4138;SDS011;2083;51.034;6.996;2022-10-19T14:11:34;12.47;;;2.73;;
4138;SDS011;2083;51.034;6.996;2022-10-19T14:16:34;6.13;;;1.70;;
4138;SDS011;2083;51.034;6.996;2022-10-19T14:18:59;4.43;;;1.97;;
4138;SDS011;2083;51.034;6.996;2022-10-19T14:21:29;0.70;;;0.60;;
4138;SDS011;2083;51.034;6.996;2022-10-19T14:23:56;1.23;;;1.13;;
4138;SDS011;2083;51.034;6.996;2022-10-19T14:26:22;2.20;;;1.53;;
4138;SDS011;2083;51.034;6.996;2022-10-19T14:28:52;2.27;;;1.10;;
4138;SDS011;2083;51.034;6.996;2022-10-19T14:31:21;18.70;;;1.13;;
4138;SDS011;2083;51.034;6.996;2022-10-19T14:33:51;2.50;;;1.03;;
4138;SDS011;2083;51.034;6.996;2022-10-19T14:36:18;5.30;;;1.20;;
4138;SDS011;2083;51.034;6.996;2022-10-19T14:38:45;1.80;;;1.70;;
4138;SDS011;2083;51.034;6.996;2022-10-19T14:41:17;5.30;;;1.27;;
4138;SDS011;2083;51.034;6.996;2022-10-19T14:43:43;2.60;;;1.10;;
4138;SDS011;2083;51.034;6.996;2022-10-19T14:46:11;0.70;;;0.47;;
4138;SDS011;2083;51.034;6.996;2022-10-19T14:48:38;2.90;;;0.93;;
4138;SDS011;2083;51.034;6.996;2022-10-19T14:51:07;2.17;;;1.70;;
4138;SDS011;2083;51.034;6.996;2022-10-19T14:53:45;1.73;;;1.63;;
4138;SDS011;2083;51.034;6.996;2022-10-19T14:56:22;0.60;;;0.50;;
4138;SDS011;2083;51.034;6.996;2022-10-19T14:58:53;1.40;;;1.30;;
4138;SDS011;2083;51.034;6.996;2022-10-19T15:01:20;3.83;;;1.70;;
4138;SDS011;2083;51.034;6.996;2022-10-19T15:03:47;4.60;;;1.67;;
4138;SDS011;2083;51.034;6.996;2022-10-19T15:06:19;1.30;;;1.20;;
4138;SDS011;2083;51.034;6.996;2022-10-19T15:08:48;1.60;;;1.50;;
4138;SDS011;2083;51.034;6.996;2022-10-19T15:11:35;1.10;;;1.00;;
4138;SDS011;2083;51.034;6.996;2022-10-19T15:14:12;3.03;;;1.67;;
4138;SDS011;2083;51.034;6.996;2022-10-19T15:19:09;0.60;;;0.40;;
4138;SDS011;2083;51.034;6.996;2022-10-19T15:21:38;0.70;;;0.60;;
4138;SDS011;2083;51.034;6.996;2022-10-19T15:24:14;1.30;;;0.87;;
4138;SDS011;2083;51.034;6.996;2022-10-19T15:26:50;6.40;;;2.13;;
4138;SDS011;2083;51.034;6.996;2022-10-19T15:29:29;0.70;;;0.40;;
4138;SDS011;2083;51.034;6.996;2022-10-19T15:31:55;0.83;;;0.83;;
4138;SDS011;2083;51.034;6.996;2022-10-19T15:34:36;0.80;;;0.50;;
4138;SDS011;2083;51.034;6.996;2022-10-19T15:37:03;3.60;;;1.53;;
4138;SDS011;2083;51.034;6.996;2022-10-19T15:39:32;0.80;;;0.67;;
4138;SDS011;2083;51.034;6.996;2022-10-19T15:45:00;5.10;;;1.10;;
4138;SDS011;2083;51.034;6.996;2022-10-19T15:47:26;3.97;;;1.03;;
4138;SDS011;2083;51.034;6.996;2022-10-19T15:49:53;2.10;;;1.20;;
4138;SDS011;2083;51.034;6.996;2022-10-19T15:52:24;3.40;;;1.60;;
4138;SDS011;2083;51.034;6.996;2022-10-19T15:54:51;1.67;;;0.90;;
4138;SDS011;2083;51.034;6.996;2022-10-19T15:57:27;1.30;;;1.20;;
4138;SDS011;2083;51.034;6.996;2022-10-19T15:59:54;6.37;;;0.83;;
4138;SDS011;2083;51.034;6.996;2022-10-19T16:02:20;1.93;;;1.33;;
4138;SDS011;2083;51.034;6.996;2022-10-19T16:04:48;25.87;;;1.13;;
4138;SDS011;2083;51.034;6.996;2022-10-19T16:07:15;0.90;;;0.90;;
4138;SDS011;2083;51.034;6.996;2022-10-19T16:09:44;2.50;;;0.60;;
4138;SDS011;2083;51.034;6.996;2022-10-19T16:12:10;4.27;;;1.43;;
4138;SDS011;2083;51.034;6.996;2022-10-19T16:14:36;2.60;;;2.33;;
4138;SDS011;2083;51.034;6.996;2022-10-19T16:17:02;7.03;;;1.93;;
4138;SDS011;2083;51.034;6.996;2022-10-19T16:19:29;12.03;;;2.03;;
4138;SDS011;2083;51.034;6.996;2022-10-19T16:21:55;2.83;;;2.33;;
4138;SDS011;2083;51.034;6.996;2022-10-19T16:24:21;1.30;;;1.03;;
4138;SDS011;2083;51.034;6.996;2022-10-19T16:26:47;1.73;;;1.13;;
4138;SDS011;2083;51.034;6.996;2022-10-19T16:29:13;25.23;;;0.93;;
4138;SDS011;2083;51.034;6.996;2022-10-19T16:31:39;1.57;;;1.37;;
4138;SDS011;2083;51.034;6.996;2022-10-19T16:34:05;1.83;;;1.73;;
4138;SDS011;2083;51.034;6.996;2022-10-19T16:36:31;7.80;;;1.50;;
4138;SDS011;2083;51.034;6.996;2022-10-19T16:38:58;3.63;;;1.90;;
4138;SDS011;2083;51.034;6.996;2022-10-19T16:41:25;1.63;;;1.40;;
4138;SDS011;2083;51.034;6.996;2022-10-19T16:43:54;4.03;;;1.30;;
4138;SDS011;2083;51.034;6.996;2022-10-19T16:46:20;1.27;;;1.17;;
4138;SDS011;2083;51.034;6.996;2022-10-19T16:48:47;1.50;;;1.40;;
4138;SDS011;2083;51.034;6.996;2022-10-19T16:51:20;3.37;;;1.63;;
4138;SDS011;2083;51.034;6.996;2022-10-19T16:53:49;2.70;;;1.00;;
4138;SDS011;2083;51.034;6.996;2022-10-19T16:56:15;2.17;;;0.90;;
4138;SDS011;2083;51.034;6.996;2022-10-19T16:58:41;11.67;;;2.17;;
4138;SDS011;2083;51.034;6.996;2022-10-19T17:01:07;1.93;;;1.30;;
4138;SDS011;2083;51.034;6.996;2022-10-19T17:03:34;1.20;;;0.70;;
4138;SDS011;2083;51.034;6.996;2022-10-19T17:06:03;1.43;;;1.33;;
4138;SDS011;2083;51.034;6.996;2022-10-19T17:08:29;1.50;;;1.40;;
4138;SDS011;2083;51.034;6.996;2022-10-19T17:10:56;5.13;;;2.30;;
4138;SDS011;2083;51.034;6.996;2022-10-19T17:13:22;6.83;;;1.30;;
4138;SDS011;2083;51.034;6.996;2022-10-19T17:15:47;1.10;;;1.00;;
4138;SDS011;2083;51.034;6.996;2022-10-19T17:18:13;2.77;;;2.07;;
4138;SDS011;2083;51.034;6.996;2022-10-19T17:20:39;10.20;;;1.47;;
4138;SDS011;2083;51.034;6.996;2022-10-19T17:23:05;2.33;;;1.10;;
4138;SDS011;2083;51.034;6.996;2022-10-19T17:25:31;1.90;;;1.80;;